Terminal Aerodrome Forecast
Issued by NWS

Home | Current Version | Previous Version | Text Only | Print | Product List | Glossary On
Versions: 1 2 3 4 5 6 7 8 9 10 11 12 13 14 15 16 17 18 19 20 21 22 23 24 25 26 27 28 29 30 31
020
FTUS43 KLOT 200856 AAB
TAFORD
TAF AMD
KORD 200856Z 2009/2112 06009KT 3SM -SHRA BR OVC005
      TEMPO 2009/2012 1 1/2SM -SHRA BR OVC004
     FM201300 08006KT 1SM -DZ BR OVC003
     FM201800 11006KT 4SM BR OVC007
     FM210300 15006KT 2SM BR OVC005=

USA.gov is the U.S. government's official web portal to all federal, state and local government web resources and services.